Terminal Aerodrome Forecast
Issued by NWS Cleveland, OH

Home | Current Version | Previous Version | Text Only | Print | Product List | Glossary On
Versions: 1 2 3 4 5 6 7 8 9 10 11 12 13 14 15 16 17 18 19 20 21 22
000
FTUS41 KCLE 011700 RRA
TAFCAK
TAF
KCAK 011746Z 0118/0218 12008KT 2SM -SN OVC008
      TEMPO 0118/0121 3SM -SN OVC012
     FM012200 11010KT 3/4SM -SN OVC006
     FM020200 11010KT 2SM -RASNPL OVC007
     FM020700 26010KT 1 1/2SM -SN OVC004
     FM021500 33015G25KT 2SM BLSN OVC006=

USA.gov is the U.S. government's official web portal to all federal, state and local government web resources and services.